Allen, South Dakota
Current Conditions -  °F | °C
As of 2:52 AM on Saturday 01 Nov 2014 (Local Time) from KIEN Reporting Station
Clear Clear  
Wind Chill: 26°   Ceiling: Unl
Heat Index: 37°   Visibility: 10mi
Dew Point: 21°   Wind: 23mph
Humidity: 52%   Direction: 200°SSW
Pressure: 29.94"   Gusts: 35mph
Location:  43.28°N, 101.93°W
Report Text: KIEN 010852Z AUTO 20020G30KT 10SM CLR 03/M06 A2994 RMK AO2 PK WND 19042/0800 SLP146 T00281061 55007
Loading
Personal Weather Stations






























Interactive Weather Map
Tropical Storm Tracking
New forecast layout! Learn more

10-Day Weather Forecast

Advertisements
Track Severe Weather on mobile